sensor_id;sensor_type;location;lat;lon;timestamp;P1;durP1;ratioP1;P2;durP2;ratioP2
41966;SDS011;27656;53.068;8.818;2023-05-31T00:02:13;24.67;;;8.27;;
41966;SDS011;27656;53.068;8.818;2023-05-31T00:04:40;19.97;;;7.50;;
41966;SDS011;27656;53.068;8.818;2023-05-31T00:07:07;17.40;;;7.40;;
41966;SDS011;27656;53.068;8.818;2023-05-31T00:09:34;22.80;;;8.30;;
41966;SDS011;27656;53.068;8.818;2023-05-31T00:12:00;21.50;;;8.00;;
41966;SDS011;27656;53.068;8.818;2023-05-31T00:14:27;22.30;;;8.47;;
41966;SDS011;27656;53.068;8.818;2023-05-31T00:16:53;18.47;;;8.03;;
41966;SDS011;27656;53.068;8.818;2023-05-31T00:19:40;21.90;;;8.60;;
41966;SDS011;27656;53.068;8.818;2023-05-31T00:22:06;19.17;;;8.27;;
41966;SDS011;27656;53.068;8.818;2023-05-31T00:24:33;18.00;;;8.30;;
41966;SDS011;27656;53.068;8.818;2023-05-31T00:26:59;16.27;;;8.60;;
41966;SDS011;27656;53.068;8.818;2023-05-31T00:29:26;22.37;;;9.03;;
41966;SDS011;27656;53.068;8.818;2023-05-31T00:31:53;23.17;;;8.00;;
41966;SDS011;27656;53.068;8.818;2023-05-31T00:34:20;26.73;;;9.00;;
41966;SDS011;27656;53.068;8.818;2023-05-31T00:36:46;23.47;;;8.47;;
41966;SDS011;27656;53.068;8.818;2023-05-31T00:39:13;18.30;;;7.97;;
41966;SDS011;27656;53.068;8.818;2023-05-31T00:41:39;21.90;;;8.80;;
41966;SDS011;27656;53.068;8.818;2023-05-31T00:44:06;22.70;;;8.20;;
41966;SDS011;27656;53.068;8.818;2023-05-31T00:46:33;19.50;;;7.60;;
41966;SDS011;27656;53.068;8.818;2023-05-31T00:49:01;22.47;;;8.40;;
41966;SDS011;27656;53.068;8.818;2023-05-31T00:51:28;20.47;;;8.40;;
41966;SDS011;27656;53.068;8.818;2023-05-31T00:53:57;22.33;;;8.23;;
41966;SDS011;27656;53.068;8.818;2023-05-31T00:56:25;23.23;;;8.60;;
41966;SDS011;27656;53.068;8.818;2023-05-31T00:58:51;25.90;;;9.27;;
41966;SDS011;27656;53.068;8.818;2023-05-31T01:01:20;25.63;;;8.40;;
41966;SDS011;27656;53.068;8.818;2023-05-31T01:03:47;21.70;;;8.07;;
41966;SDS011;27656;53.068;8.818;2023-05-31T01:06:14;21.17;;;9.03;;
41966;SDS011;27656;53.068;8.818;2023-05-31T01:08:41;19.90;;;8.20;;
41966;SDS011;27656;53.068;8.818;2023-05-31T01:14:20;22.30;;;8.03;;
41966;SDS011;27656;53.068;8.818;2023-05-31T01:16:54;22.07;;;8.10;;
41966;SDS011;27656;53.068;8.818;2023-05-31T01:19:30;23.13;;;8.80;;
41966;SDS011;27656;53.068;8.818;2023-05-31T01:24:43;20.00;;;7.60;;
41966;SDS011;27656;53.068;8.818;2023-05-31T01:27:17;18.80;;;7.70;;
41966;SDS011;27656;53.068;8.818;2023-05-31T01:29:45;19.93;;;7.97;;
41966;SDS011;27656;53.068;8.818;2023-05-31T01:32:12;21.83;;;7.97;;
41966;SDS011;27656;53.068;8.818;2023-05-31T01:34:43;18.87;;;8.97;;
41966;SDS011;27656;53.068;8.818;2023-05-31T01:37:10;17.70;;;7.83;;
41966;SDS011;27656;53.068;8.818;2023-05-31T01:39:37;18.30;;;7.97;;
41966;SDS011;27656;53.068;8.818;2023-05-31T01:42:04;15.50;;;7.00;;
41966;SDS011;27656;53.068;8.818;2023-05-31T01:44:32;21.03;;;8.50;;
41966;SDS011;27656;53.068;8.818;2023-05-31T01:46:59;19.07;;;7.57;;
41966;SDS011;27656;53.068;8.818;2023-05-31T01:49:26;21.17;;;8.47;;
41966;SDS011;27656;53.068;8.818;2023-05-31T01:51:52;20.47;;;8.47;;
41966;SDS011;27656;53.068;8.818;2023-05-31T01:54:19;23.97;;;8.23;;
41966;SDS011;27656;53.068;8.818;2023-05-31T01:56:46;19.23;;;7.73;;
41966;SDS011;27656;53.068;8.818;2023-05-31T01:59:12;22.10;;;8.70;;
41966;SDS011;27656;53.068;8.818;2023-05-31T02:01:39;16.53;;;8.80;;
41966;SDS011;27656;53.068;8.818;2023-05-31T02:04:06;20.80;;;8.00;;
41966;SDS011;27656;53.068;8.818;2023-05-31T02:06:36;21.57;;;8.87;;
41966;SDS011;27656;53.068;8.818;2023-05-31T02:09:04;19.23;;;8.73;;
41966;SDS011;27656;53.068;8.818;2023-05-31T02:11:31;23.03;;;9.40;;
41966;SDS011;27656;53.068;8.818;2023-05-31T02:13:58;18.90;;;8.57;;
41966;SDS011;27656;53.068;8.818;2023-05-31T02:16:24;19.87;;;8.40;;
41966;SDS011;27656;53.068;8.818;2023-05-31T02:18:51;20.30;;;8.67;;
41966;SDS011;27656;53.068;8.818;2023-05-31T02:21:17;22.37;;;8.70;;
41966;SDS011;27656;53.068;8.818;2023-05-31T02:23:44;21.17;;;8.57;;
41966;SDS011;27656;53.068;8.818;2023-05-31T02:26:11;22.57;;;9.03;;
41966;SDS011;27656;53.068;8.818;2023-05-31T02:28:37;17.73;;;8.87;;
41966;SDS011;27656;53.068;8.818;2023-05-31T02:31:04;20.40;;;9.03;;
41966;SDS011;27656;53.068;8.818;2023-05-31T02:33:31;20.37;;;8.63;;
41966;SDS011;27656;53.068;8.818;2023-05-31T02:35:57;22.50;;;8.77;;
41966;SDS011;27656;53.068;8.818;2023-05-31T02:38:25;28.17;;;9.43;;
41966;SDS011;27656;53.068;8.818;2023-05-31T02:40:52;21.97;;;8.23;;
41966;SDS011;27656;53.068;8.818;2023-05-31T02:43:18;19.30;;;8.57;;
41966;SDS011;27656;53.068;8.818;2023-05-31T02:45:45;24.03;;;9.53;;
41966;SDS011;27656;53.068;8.818;2023-05-31T02:48:11;24.03;;;10.10;;
41966;SDS011;27656;53.068;8.818;2023-05-31T02:50:38;22.57;;;9.90;;
41966;SDS011;27656;53.068;8.818;2023-05-31T02:53:04;27.77;;;9.77;;
41966;SDS011;27656;53.068;8.818;2023-05-31T02:55:31;27.10;;;10.40;;
41966;SDS011;27656;53.068;8.818;2023-05-31T02:57:58;26.23;;;9.97;;
41966;SDS011;27656;53.068;8.818;2023-05-31T03:00:25;27.63;;;10.50;;
41966;SDS011;27656;53.068;8.818;2023-05-31T03:02:52;29.57;;;10.53;;
41966;SDS011;27656;53.068;8.818;2023-05-31T03:05:19;36.63;;;10.27;;
41966;SDS011;27656;53.068;8.818;2023-05-31T03:07:45;32.20;;;9.60;;
41966;SDS011;27656;53.068;8.818;2023-05-31T03:10:12;52.27;;;11.27;;
41966;SDS011;27656;53.068;8.818;2023-05-31T03:12:39;42.80;;;9.20;;
41966;SDS011;27656;53.068;8.818;2023-05-31T03:15:05;139.60;;;14.27;;
41966;SDS011;27656;53.068;8.818;2023-05-31T03:17:33;50.73;;;8.47;;
41966;SDS011;27656;53.068;8.818;2023-05-31T03:19:59;60.53;;;9.77;;
41966;SDS011;27656;53.068;8.818;2023-05-31T03:22:26;105.90;;;10.30;;
41966;SDS011;27656;53.068;8.818;2023-05-31T03:24:53;95.13;;;9.53;;
41966;SDS011;27656;53.068;8.818;2023-05-31T03:27:19;74.47;;;8.40;;
41966;SDS011;27656;53.068;8.818;2023-05-31T03:29:46;109.17;;;10.60;;
41966;SDS011;27656;53.068;8.818;2023-05-31T03:32:12;63.50;;;7.57;;
41966;SDS011;27656;53.068;8.818;2023-05-31T03:34:39;124.53;;;11.03;;
41966;SDS011;27656;53.068;8.818;2023-05-31T03:37:05;105.93;;;10.70;;
41966;SDS011;27656;53.068;8.818;2023-05-31T03:39:32;48.73;;;8.13;;
41966;SDS011;27656;53.068;8.818;2023-05-31T03:42:00;55.97;;;8.73;;
41966;SDS011;27656;53.068;8.818;2023-05-31T03:44:26;49.00;;;7.77;;
41966;SDS011;27656;53.068;8.818;2023-05-31T03:46:53;24.70;;;6.63;;
41966;SDS011;27656;53.068;8.818;2023-05-31T03:49:19;32.83;;;7.83;;
41966;SDS011;27656;53.068;8.818;2023-05-31T03:51:46;97.63;;;10.57;;
41966;SDS011;27656;53.068;8.818;2023-05-31T03:54:12;29.13;;;7.47;;
41966;SDS011;27656;53.068;8.818;2023-05-31T03:56:39;26.07;;;6.67;;
41966;SDS011;27656;53.068;8.818;2023-05-31T03:59:06;21.00;;;5.87;;
41966;SDS011;27656;53.068;8.818;2023-05-31T04:01:32;17.77;;;5.77;;
41966;SDS011;27656;53.068;8.818;2023-05-31T04:03:59;35.37;;;6.70;;
41966;SDS011;27656;53.068;8.818;2023-05-31T04:06:26;40.03;;;5.90;;
41966;SDS011;27656;53.068;8.818;2023-05-31T04:08:53;38.17;;;6.93;;
41966;SDS011;27656;53.068;8.818;2023-05-31T04:11:19;20.10;;;5.80;;
41966;SDS011;27656;53.068;8.818;2023-05-31T04:13:46;33.30;;;5.97;;
41966;SDS011;27656;53.068;8.818;2023-05-31T04:16:13;27.37;;;5.77;;
41966;SDS011;27656;53.068;8.818;2023-05-31T04:18:39;32.37;;;6.07;;
41966;SDS011;27656;53.068;8.818;2023-05-31T04:21:05;21.57;;;6.03;;
41966;SDS011;27656;53.068;8.818;2023-05-31T04:23:33;41.17;;;7.13;;
41966;SDS011;27656;53.068;8.818;2023-05-31T04:26:02;14.13;;;5.63;;
41966;SDS011;27656;53.068;8.818;2023-05-31T04:28:29;12.50;;;6.27;;
41966;SDS011;27656;53.068;8.818;2023-05-31T04:30:56;11.83;;;6.13;;
41966;SDS011;27656;53.068;8.818;2023-05-31T04:33:27;19.47;;;7.03;;
41966;SDS011;27656;53.068;8.818;2023-05-31T04:35:56;10.53;;;5.80;;
41966;SDS011;27656;53.068;8.818;2023-05-31T04:38:24;10.43;;;6.10;;
41966;SDS011;27656;53.068;8.818;2023-05-31T04:40:53;11.13;;;6.07;;
41966;SDS011;27656;53.068;8.818;2023-05-31T04:43:21;12.43;;;5.77;;
41966;SDS011;27656;53.068;8.818;2023-05-31T04:45:48;10.63;;;5.43;;
41966;SDS011;27656;53.068;8.818;2023-05-31T04:48:15;21.37;;;6.60;;
41966;SDS011;27656;53.068;8.818;2023-05-31T04:50:42;12.60;;;6.50;;
41966;SDS011;27656;53.068;8.818;2023-05-31T04:53:10;10.10;;;6.03;;
41966;SDS011;27656;53.068;8.818;2023-05-31T04:55:37;10.67;;;6.60;;
41966;SDS011;27656;53.068;8.818;2023-05-31T04:58:03;13.03;;;6.30;;
41966;SDS011;27656;53.068;8.818;2023-05-31T05:00:30;11.10;;;6.20;;
41966;SDS011;27656;53.068;8.818;2023-05-31T05:02:56;10.47;;;6.37;;
41966;SDS011;27656;53.068;8.818;2023-05-31T05:05:23;11.90;;;5.90;;
41966;SDS011;27656;53.068;8.818;2023-05-31T05:07:52;9.90;;;7.00;;
41966;SDS011;27656;53.068;8.818;2023-05-31T05:10:18;14.13;;;6.40;;
41966;SDS011;27656;53.068;8.818;2023-05-31T05:12:45;10.80;;;6.60;;
41966;SDS011;27656;53.068;8.818;2023-05-31T05:15:11;10.73;;;7.27;;
41966;SDS011;27656;53.068;8.818;2023-05-31T05:17:38;10.20;;;7.03;;
41966;SDS011;27656;53.068;8.818;2023-05-31T05:20:05;12.97;;;7.70;;
41966;SDS011;27656;53.068;8.818;2023-05-31T05:22:34;14.67;;;7.30;;
41966;SDS011;27656;53.068;8.818;2023-05-31T05:25:00;12.23;;;6.93;;
41966;SDS011;27656;53.068;8.818;2023-05-31T05:27:27;14.23;;;7.43;;
41966;SDS011;27656;53.068;8.818;2023-05-31T05:29:54;12.50;;;7.73;;
41966;SDS011;27656;53.068;8.818;2023-05-31T05:32:21;13.07;;;7.73;;
41966;SDS011;27656;53.068;8.818;2023-05-31T05:34:47;13.33;;;7.23;;
41966;SDS011;27656;53.068;8.818;2023-05-31T05:37:14;15.13;;;8.13;;
41966;SDS011;27656;53.068;8.818;2023-05-31T05:39:40;15.47;;;7.40;;
41966;SDS011;27656;53.068;8.818;2023-05-31T05:42:07;16.27;;;7.73;;
41966;SDS011;27656;53.068;8.818;2023-05-31T05:44:33;14.00;;;7.60;;
41966;SDS011;27656;53.068;8.818;2023-05-31T05:47:00;11.90;;;7.20;;
41966;SDS011;27656;53.068;8.818;2023-05-31T05:49:27;12.80;;;7.17;;
41966;SDS011;27656;53.068;8.818;2023-05-31T05:51:53;14.10;;;6.60;;
41966;SDS011;27656;53.068;8.818;2023-05-31T05:54:20;13.03;;;6.93;;
41966;SDS011;27656;53.068;8.818;2023-05-31T05:56:46;14.73;;;7.23;;
41966;SDS011;27656;53.068;8.818;2023-05-31T05:59:13;10.73;;;6.60;;
41966;SDS011;27656;53.068;8.818;2023-05-31T06:01:40;11.00;;;6.13;;
41966;SDS011;27656;53.068;8.818;2023-05-31T06:04:07;11.00;;;6.37;;
41966;SDS011;27656;53.068;8.818;2023-05-31T06:06:33;12.27;;;5.83;;
41966;SDS011;27656;53.068;8.818;2023-05-31T06:09:00;11.87;;;6.33;;
41966;SDS011;27656;53.068;8.818;2023-05-31T06:11:26;14.03;;;5.70;;
41966;SDS011;27656;53.068;8.818;2023-05-31T06:13:53;8.77;;;5.63;;
41966;SDS011;27656;53.068;8.818;2023-05-31T06:16:23;11.87;;;5.70;;
41966;SDS011;27656;53.068;8.818;2023-05-31T06:18:50;9.13;;;5.10;;
41966;SDS011;27656;53.068;8.818;2023-05-31T06:21:16;10.57;;;5.20;;
41966;SDS011;27656;53.068;8.818;2023-05-31T06:23:43;9.60;;;4.97;;
41966;SDS011;27656;53.068;8.818;2023-05-31T06:26:09;11.90;;;5.07;;
41966;SDS011;27656;53.068;8.818;2023-05-31T06:28:37;7.27;;;4.60;;
41966;SDS011;27656;53.068;8.818;2023-05-31T06:31:03;12.97;;;5.00;;
41966;SDS011;27656;53.068;8.818;2023-05-31T06:33:30;16.00;;;4.70;;
41966;SDS011;27656;53.068;8.818;2023-05-31T06:35:56;13.53;;;5.77;;
41966;SDS011;27656;53.068;8.818;2023-05-31T06:38:23;10.10;;;4.60;;
41966;SDS011;27656;53.068;8.818;2023-05-31T06:40:53;7.97;;;4.30;;
41966;SDS011;27656;53.068;8.818;2023-05-31T06:43:19;10.17;;;4.43;;
41966;SDS011;27656;53.068;8.818;2023-05-31T06:45:47;12.67;;;4.70;;
41966;SDS011;27656;53.068;8.818;2023-05-31T06:48:14;12.23;;;4.47;;
41966;SDS011;27656;53.068;8.818;2023-05-31T06:50:40;9.73;;;4.70;;
41966;SDS011;27656;53.068;8.818;2023-05-31T06:53:07;7.43;;;3.80;;
41966;SDS011;27656;53.068;8.818;2023-05-31T06:55:35;9.80;;;4.13;;
41966;SDS011;27656;53.068;8.818;2023-05-31T06:58:05;9.27;;;4.43;;
41966;SDS011;27656;53.068;8.818;2023-05-31T07:00:32;8.73;;;4.33;;
41966;SDS011;27656;53.068;8.818;2023-05-31T07:02:58;13.47;;;4.17;;
41966;SDS011;27656;53.068;8.818;2023-05-31T07:05:25;9.47;;;4.53;;
41966;SDS011;27656;53.068;8.818;2023-05-31T07:07:51;9.80;;;3.90;;
41966;SDS011;27656;53.068;8.818;2023-05-31T07:10:18;13.57;;;4.37;;
41966;SDS011;27656;53.068;8.818;2023-05-31T07:12:45;7.50;;;4.27;;
41966;SDS011;27656;53.068;8.818;2023-05-31T07:15:12;7.53;;;3.60;;
41966;SDS011;27656;53.068;8.818;2023-05-31T07:17:38;7.87;;;3.83;;
41966;SDS011;27656;53.068;8.818;2023-05-31T07:20:05;7.47;;;3.37;;
41966;SDS011;27656;53.068;8.818;2023-05-31T07:22:33;10.83;;;3.63;;
41966;SDS011;27656;53.068;8.818;2023-05-31T07:25:00;7.47;;;3.63;;
41966;SDS011;27656;53.068;8.818;2023-05-31T07:27:27;10.63;;;3.57;;
41966;SDS011;27656;53.068;8.818;2023-05-31T07:29:53;6.60;;;3.77;;
41966;SDS011;27656;53.068;8.818;2023-05-31T07:32:20;7.13;;;3.93;;
41966;SDS011;27656;53.068;8.818;2023-05-31T07:34:47;6.97;;;3.43;;
41966;SDS011;27656;53.068;8.818;2023-05-31T07:37:28;8.27;;;3.00;;
41966;SDS011;27656;53.068;8.818;2023-05-31T07:39:55;7.90;;;3.00;;
41966;SDS011;27656;53.068;8.818;2023-05-31T07:42:22;9.87;;;3.40;;
41966;SDS011;27656;53.068;8.818;2023-05-31T07:44:48;7.43;;;3.13;;
41966;SDS011;27656;53.068;8.818;2023-05-31T07:47:15;15.50;;;3.33;;
41966;SDS011;27656;53.068;8.818;2023-05-31T07:49:42;10.53;;;3.80;;
41966;SDS011;27656;53.068;8.818;2023-05-31T07:52:08;7.33;;;3.43;;
41966;SDS011;27656;53.068;8.818;2023-05-31T07:54:35;10.37;;;3.53;;
41966;SDS011;27656;53.068;8.818;2023-05-31T07:57:01;8.40;;;3.73;;
41966;SDS011;27656;53.068;8.818;2023-05-31T07:59:28;8.97;;;4.50;;
41966;SDS011;27656;53.068;8.818;2023-05-31T08:01:54;8.10;;;4.10;;
41966;SDS011;27656;53.068;8.818;2023-05-31T08:04:21;10.30;;;4.30;;
41966;SDS011;27656;53.068;8.818;2023-05-31T08:06:47;15.87;;;5.33;;
41966;SDS011;27656;53.068;8.818;2023-05-31T08:09:14;9.37;;;4.20;;
41966;SDS011;27656;53.068;8.818;2023-05-31T08:11:40;13.50;;;4.77;;
41966;SDS011;27656;53.068;8.818;2023-05-31T08:14:07;9.27;;;4.00;;
41966;SDS011;27656;53.068;8.818;2023-05-31T08:16:34;11.47;;;3.00;;
41966;SDS011;27656;53.068;8.818;2023-05-31T08:19:01;10.43;;;3.90;;
41966;SDS011;27656;53.068;8.818;2023-05-31T08:21:27;11.83;;;3.40;;
41966;SDS011;27656;53.068;8.818;2023-05-31T08:23:54;6.73;;;2.67;;
41966;SDS011;27656;53.068;8.818;2023-05-31T08:26:21;10.60;;;2.80;;
41966;SDS011;27656;53.068;8.818;2023-05-31T08:28:48;10.17;;;2.93;;
41966;SDS011;27656;53.068;8.818;2023-05-31T08:31:15;7.97;;;2.80;;
41966;SDS011;27656;53.068;8.818;2023-05-31T08:33:51;8.23;;;3.20;;
41966;SDS011;27656;53.068;8.818;2023-05-31T08:36:20;9.20;;;3.03;;
41966;SDS011;27656;53.068;8.818;2023-05-31T08:38:47;10.13;;;3.17;;
41966;SDS011;27656;53.068;8.818;2023-05-31T08:41:13;6.73;;;3.13;;
41966;SDS011;27656;53.068;8.818;2023-05-31T08:43:40;49.27;;;31.60;;
41966;SDS011;27656;53.068;8.818;2023-05-31T08:46:07;12.50;;;2.97;;
41966;SDS011;27656;53.068;8.818;2023-05-31T08:48:45;6.47;;;2.90;;
41966;SDS011;27656;53.068;8.818;2023-05-31T08:51:16;4.47;;;2.50;;
41966;SDS011;27656;53.068;8.818;2023-05-31T08:53:43;8.27;;;2.57;;
41966;SDS011;27656;53.068;8.818;2023-05-31T08:56:09;6.93;;;2.80;;
41966;SDS011;27656;53.068;8.818;2023-05-31T08:58:36;10.80;;;3.20;;
41966;SDS011;27656;53.068;8.818;2023-05-31T09:01:03;7.43;;;3.40;;
41966;SDS011;27656;53.068;8.818;2023-05-31T09:03:30;7.73;;;2.70;;
41966;SDS011;27656;53.068;8.818;2023-05-31T09:05:58;8.90;;;3.10;;
41966;SDS011;27656;53.068;8.818;2023-05-31T09:08:24;8.30;;;3.70;;
41966;SDS011;27656;53.068;8.818;2023-05-31T09:10:51;10.43;;;2.97;;
41966;SDS011;27656;53.068;8.818;2023-05-31T09:13:18;8.77;;;3.50;;
41966;SDS011;27656;53.068;8.818;2023-05-31T09:15:44;14.63;;;4.27;;
41966;SDS011;27656;53.068;8.818;2023-05-31T09:18:15;11.93;;;4.10;;
41966;SDS011;27656;53.068;8.818;2023-05-31T09:20:46;15.17;;;3.97;;
41966;SDS011;27656;53.068;8.818;2023-05-31T09:23:18;10.13;;;3.53;;
41966;SDS011;27656;53.068;8.818;2023-05-31T09:25:54;6.53;;;3.43;;
41966;SDS011;27656;53.068;8.818;2023-05-31T09:28:21;11.07;;;3.67;;
41966;SDS011;27656;53.068;8.818;2023-05-31T09:31:01;14.30;;;3.47;;
41966;SDS011;27656;53.068;8.818;2023-05-31T09:33:38;10.20;;;3.20;;
41966;SDS011;27656;53.068;8.818;2023-05-31T09:36:07;11.07;;;4.23;;
41966;SDS011;27656;53.068;8.818;2023-05-31T09:38:35;9.30;;;3.77;;
41966;SDS011;27656;53.068;8.818;2023-05-31T09:41:14;10.47;;;3.37;;
41966;SDS011;27656;53.068;8.818;2023-05-31T09:43:42;8.27;;;2.80;;
41966;SDS011;27656;53.068;8.818;2023-05-31T09:46:13;10.37;;;2.83;;
41966;SDS011;27656;53.068;8.818;2023-05-31T09:48:41;7.27;;;2.40;;
41966;SDS011;27656;53.068;8.818;2023-05-31T09:51:08;11.00;;;2.73;;
41966;SDS011;27656;53.068;8.818;2023-05-31T09:53:41;7.53;;;2.50;;
41966;SDS011;27656;53.068;8.818;2023-05-31T09:56:19;5.27;;;2.30;;
41966;SDS011;27656;53.068;8.818;2023-05-31T09:58:49;9.73;;;2.90;;
41966;SDS011;27656;53.068;8.818;2023-05-31T10:01:17;7.60;;;2.30;;
41966;SDS011;27656;53.068;8.818;2023-05-31T10:03:44;9.47;;;3.13;;
41966;SDS011;27656;53.068;8.818;2023-05-31T10:06:13;9.80;;;2.90;;
41966;SDS011;27656;53.068;8.818;2023-05-31T10:08:41;7.20;;;2.37;;
41966;SDS011;27656;53.068;8.818;2023-05-31T10:11:09;12.23;;;2.70;;
41966;SDS011;27656;53.068;8.818;2023-05-31T10:13:40;7.17;;;2.93;;
41966;SDS011;27656;53.068;8.818;2023-05-31T10:16:10;10.50;;;3.00;;
41966;SDS011;27656;53.068;8.818;2023-05-31T10:18:38;9.67;;;3.07;;
41966;SDS011;27656;53.068;8.818;2023-05-31T10:21:11;8.90;;;2.60;;
41966;SDS011;27656;53.068;8.818;2023-05-31T10:23:43;9.50;;;2.73;;
41966;SDS011;27656;53.068;8.818;2023-05-31T10:26:13;8.00;;;2.57;;
41966;SDS011;27656;53.068;8.818;2023-05-31T10:28:44;8.13;;;2.87;;
41966;SDS011;27656;53.068;8.818;2023-05-31T10:31:18;4.67;;;2.13;;
41966;SDS011;27656;53.068;8.818;2023-05-31T10:33:47;11.87;;;2.80;;
41966;SDS011;27656;53.068;8.818;2023-05-31T10:36:17;5.97;;;2.90;;
41966;SDS011;27656;53.068;8.818;2023-05-31T10:38:49;10.30;;;2.30;;
41966;SDS011;27656;53.068;8.818;2023-05-31T10:41:21;7.23;;;2.60;;
41966;SDS011;27656;53.068;8.818;2023-05-31T10:43:54;4.87;;;2.27;;
41966;SDS011;27656;53.068;8.818;2023-05-31T10:46:27;5.63;;;2.47;;
41966;SDS011;27656;53.068;8.818;2023-05-31T10:48:55;4.93;;;2.50;;
41966;SDS011;27656;53.068;8.818;2023-05-31T10:54:09;6.63;;;2.20;;
41966;SDS011;27656;53.068;8.818;2023-05-31T10:56:51;7.57;;;2.67;;
41966;SDS011;27656;53.068;8.818;2023-05-31T10:59:18;5.23;;;2.57;;
41966;SDS011;27656;53.068;8.818;2023-05-31T11:01:46;5.43;;;2.43;;
41966;SDS011;27656;53.068;8.818;2023-05-31T11:04:19;6.20;;;2.60;;
41966;SDS011;27656;53.068;8.818;2023-05-31T11:06:47;6.43;;;2.67;;
41966;SDS011;27656;53.068;8.818;2023-05-31T11:09:17;7.47;;;2.50;;
41966;SDS011;27656;53.068;8.818;2023-05-31T11:11:45;6.13;;;2.50;;
41966;SDS011;27656;53.068;8.818;2023-05-31T11:19:16;7.93;;;2.80;;
41966;SDS011;27656;53.068;8.818;2023-05-31T11:21:49;8.37;;;2.53;;
41966;SDS011;27656;53.068;8.818;2023-05-31T11:24:30;9.33;;;3.00;;
41966;SDS011;27656;53.068;8.818;2023-05-31T11:27:00;9.57;;;3.40;;
41966;SDS011;27656;53.068;8.818;2023-05-31T11:29:55;9.23;;;3.30;;
41966;SDS011;27656;53.068;8.818;2023-05-31T11:35:02;10.30;;;3.33;;
41966;SDS011;27656;53.068;8.818;2023-05-31T11:37:34;9.00;;;2.87;;
41966;SDS011;27656;53.068;8.818;2023-05-31T11:40:05;8.90;;;3.07;;
41966;SDS011;27656;53.068;8.818;2023-05-31T11:42:44;10.07;;;3.67;;
41966;SDS011;27656;53.068;8.818;2023-05-31T11:45:12;8.53;;;3.63;;
41966;SDS011;27656;53.068;8.818;2023-05-31T11:47:58;9.83;;;3.90;;
41966;SDS011;27656;53.068;8.818;2023-05-31T11:50:30;8.13;;;3.23;;
41966;SDS011;27656;53.068;8.818;2023-05-31T11:53:01;6.23;;;3.53;;
41966;SDS011;27656;53.068;8.818;2023-05-31T11:55:32;9.27;;;3.30;;
41966;SDS011;27656;53.068;8.818;2023-05-31T11:57:59;10.27;;;3.23;;
41966;SDS011;27656;53.068;8.818;2023-05-31T12:00:25;8.03;;;3.13;;
41966;SDS011;27656;53.068;8.818;2023-05-31T12:02:52;7.70;;;2.70;;
41966;SDS011;27656;53.068;8.818;2023-05-31T12:05:20;5.67;;;2.57;;
41966;SDS011;27656;53.068;8.818;2023-05-31T12:07:52;9.40;;;3.00;;
41966;SDS011;27656;53.068;8.818;2023-05-31T12:10:19;10.13;;;3.00;;
41966;SDS011;27656;53.068;8.818;2023-05-31T12:12:46;8.77;;;2.60;;
41966;SDS011;27656;53.068;8.818;2023-05-31T12:15:13;8.07;;;3.13;;
41966;SDS011;27656;53.068;8.818;2023-05-31T12:17:42;8.13;;;2.67;;
41966;SDS011;27656;53.068;8.818;2023-05-31T12:20:09;8.50;;;2.70;;
41966;SDS011;27656;53.068;8.818;2023-05-31T12:22:38;6.53;;;3.50;;
41966;SDS011;27656;53.068;8.818;2023-05-31T12:25:05;8.60;;;3.20;;
41966;SDS011;27656;53.068;8.818;2023-05-31T12:27:32;8.63;;;2.73;;
41966;SDS011;27656;53.068;8.818;2023-05-31T12:30:15;13.00;;;4.87;;
41966;SDS011;27656;53.068;8.818;2023-05-31T12:32:44;6.33;;;2.57;;
41966;SDS011;27656;53.068;8.818;2023-05-31T12:35:11;6.90;;;3.40;;
41966;SDS011;27656;53.068;8.818;2023-05-31T12:37:39;6.60;;;2.63;;
41966;SDS011;27656;53.068;8.818;2023-05-31T12:40:12;3.50;;;2.40;;
41966;SDS011;27656;53.068;8.818;2023-05-31T12:42:41;9.00;;;2.50;;
41966;SDS011;27656;53.068;8.818;2023-05-31T12:45:08;5.70;;;2.40;;
41966;SDS011;27656;53.068;8.818;2023-05-31T12:47:35;5.93;;;2.50;;
41966;SDS011;27656;53.068;8.818;2023-05-31T12:50:06;6.13;;;2.10;;
41966;SDS011;27656;53.068;8.818;2023-05-31T12:52:34;5.77;;;2.30;;
41966;SDS011;27656;53.068;8.818;2023-05-31T12:55:02;7.90;;;1.93;;
41966;SDS011;27656;53.068;8.818;2023-05-31T12:57:29;5.23;;;2.20;;
41966;SDS011;27656;53.068;8.818;2023-05-31T13:00:05;5.73;;;2.20;;
41966;SDS011;27656;53.068;8.818;2023-05-31T13:02:39;6.43;;;1.87;;
41966;SDS011;27656;53.068;8.818;2023-05-31T13:05:07;5.67;;;2.13;;
41966;SDS011;27656;53.068;8.818;2023-05-31T13:07:34;11.13;;;2.07;;
41966;SDS011;27656;53.068;8.818;2023-05-31T13:10:04;4.73;;;1.77;;
41966;SDS011;27656;53.068;8.818;2023-05-31T13:12:37;7.93;;;2.00;;
41966;SDS011;27656;53.068;8.818;2023-05-31T13:15:04;3.97;;;1.80;;
41966;SDS011;27656;53.068;8.818;2023-05-31T13:17:31;6.37;;;1.70;;
41966;SDS011;27656;53.068;8.818;2023-05-31T13:19:59;10.10;;;2.00;;
41966;SDS011;27656;53.068;8.818;2023-05-31T13:22:37;4.83;;;1.90;;
41966;SDS011;27656;53.068;8.818;2023-05-31T13:25:05;4.27;;;1.80;;
41966;SDS011;27656;53.068;8.818;2023-05-31T13:27:32;9.00;;;1.87;;
41966;SDS011;27656;53.068;8.818;2023-05-31T13:29:58;4.33;;;1.83;;
41966;SDS011;27656;53.068;8.818;2023-05-31T13:32:25;3.70;;;1.70;;
41966;SDS011;27656;53.068;8.818;2023-05-31T13:34:52;5.07;;;1.90;;
41966;SDS011;27656;53.068;8.818;2023-05-31T13:37:22;3.27;;;1.70;;
41966;SDS011;27656;53.068;8.818;2023-05-31T13:39:49;6.63;;;1.73;;
41966;SDS011;27656;53.068;8.818;2023-05-31T13:42:15;5.43;;;1.80;;
41966;SDS011;27656;53.068;8.818;2023-05-31T13:44:42;5.30;;;1.50;;
41966;SDS011;27656;53.068;8.818;2023-05-31T13:47:09;3.47;;;1.70;;
41966;SDS011;27656;53.068;8.818;2023-05-31T13:49:35;6.67;;;1.90;;
41966;SDS011;27656;53.068;8.818;2023-05-31T13:52:03;7.43;;;2.10;;
41966;SDS011;27656;53.068;8.818;2023-05-31T13:54:31;8.97;;;2.03;;
41966;SDS011;27656;53.068;8.818;2023-05-31T13:56:57;7.27;;;2.10;;
41966;SDS011;27656;53.068;8.818;2023-05-31T13:59:25;6.83;;;2.00;;
41966;SDS011;27656;53.068;8.818;2023-05-31T14:01:52;5.20;;;1.57;;
41966;SDS011;27656;53.068;8.818;2023-05-31T14:04:18;6.13;;;1.83;;
41966;SDS011;27656;53.068;8.818;2023-05-31T14:06:49;5.07;;;1.90;;
41966;SDS011;27656;53.068;8.818;2023-05-31T14:09:15;5.07;;;1.80;;
41966;SDS011;27656;53.068;8.818;2023-05-31T14:11:43;5.43;;;1.70;;
41966;SDS011;27656;53.068;8.818;2023-05-31T14:14:10;6.90;;;2.10;;
41966;SDS011;27656;53.068;8.818;2023-05-31T14:16:36;5.23;;;1.50;;
41966;SDS011;27656;53.068;8.818;2023-05-31T14:19:03;3.53;;;1.67;;
41966;SDS011;27656;53.068;8.818;2023-05-31T14:21:30;4.67;;;1.50;;
41966;SDS011;27656;53.068;8.818;2023-05-31T14:23:58;7.03;;;1.33;;
41966;SDS011;27656;53.068;8.818;2023-05-31T14:26:25;4.13;;;1.40;;
41966;SDS011;27656;53.068;8.818;2023-05-31T14:28:52;5.63;;;1.67;;
41966;SDS011;27656;53.068;8.818;2023-05-31T14:31:19;4.63;;;1.63;;
41966;SDS011;27656;53.068;8.818;2023-05-31T14:33:45;2.20;;;1.07;;
41966;SDS011;27656;53.068;8.818;2023-05-31T14:36:12;4.90;;;1.40;;
41966;SDS011;27656;53.068;8.818;2023-05-31T14:38:39;2.97;;;1.40;;
41966;SDS011;27656;53.068;8.818;2023-05-31T14:41:05;3.40;;;1.57;;
41966;SDS011;27656;53.068;8.818;2023-05-31T14:43:32;5.13;;;1.50;;
41966;SDS011;27656;53.068;8.818;2023-05-31T14:45:58;5.67;;;1.67;;
41966;SDS011;27656;53.068;8.818;2023-05-31T14:48:25;4.70;;;1.60;;
41966;SDS011;27656;53.068;8.818;2023-05-31T14:50:52;4.60;;;1.53;;
41966;SDS011;27656;53.068;8.818;2023-05-31T14:53:18;5.57;;;1.63;;
41966;SDS011;27656;53.068;8.818;2023-05-31T14:55:44;4.60;;;1.33;;
41966;SDS011;27656;53.068;8.818;2023-05-31T14:58:11;6.87;;;1.60;;
41966;SDS011;27656;53.068;8.818;2023-05-31T15:00:38;4.23;;;1.30;;
41966;SDS011;27656;53.068;8.818;2023-05-31T15:03:05;3.37;;;1.60;;